sensor_id;sensor_type;location;lat;lon;timestamp;temperature;humidity
14370;DHT22;7268;50.792;0.252;2023-08-06T00:01:26;12.20;99.90
14370;DHT22;7268;50.792;0.252;2023-08-06T00:03:53;12.20;99.90
14370;DHT22;7268;50.792;0.252;2023-08-06T00:06:20;12.20;99.90
14370;DHT22;7268;50.792;0.252;2023-08-06T00:08:47;12.20;99.90
14370;DHT22;7268;50.792;0.252;2023-08-06T00:11:14;12.20;99.90
14370;DHT22;7268;50.792;0.252;2023-08-06T00:13:41;12.30;99.90
14370;DHT22;7268;50.792;0.252;2023-08-06T00:16:12;12.40;99.90
14370;DHT22;7268;50.792;0.252;2023-08-06T00:18:39;12.50;99.90
14370;DHT22;7268;50.792;0.252;2023-08-06T00:21:06;12.60;99.90
14370;DHT22;7268;50.792;0.252;2023-08-06T00:23:33;12.70;99.90
14370;DHT22;7268;50.792;0.252;2023-08-06T00:26:00;12.80;99.90
14370;DHT22;7268;50.792;0.252;2023-08-06T00:28:27;12.80;99.90
14370;DHT22;7268;50.792;0.252;2023-08-06T00:30:55;12.90;99.90
14370;DHT22;7268;50.792;0.252;2023-08-06T00:33:23;12.90;99.90
14370;DHT22;7268;50.792;0.252;2023-08-06T00:35:50;13.00;99.90
14370;DHT22;7268;50.792;0.252;2023-08-06T00:38:17;13.00;99.90
14370;DHT22;7268;50.792;0.252;2023-08-06T00:40:44;13.10;99.90
14370;DHT22;7268;50.792;0.252;2023-08-06T00:43:11;13.00;99.90
14370;DHT22;7268;50.792;0.252;2023-08-06T00:45:38;13.10;99.90
14370;DHT22;7268;50.792;0.252;2023-08-06T00:48:05;13.10;99.90
14370;DHT22;7268;50.792;0.252;2023-08-06T00:50:33;13.10;99.90
14370;DHT22;7268;50.792;0.252;2023-08-06T00:53:01;13.10;99.90
14370;DHT22;7268;50.792;0.252;2023-08-06T00:55:28;13.10;99.90
14370;DHT22;7268;50.792;0.252;2023-08-06T00:57:55;13.10;99.90
14370;DHT22;7268;50.792;0.252;2023-08-06T01:00:24;13.20;99.90
14370;DHT22;7268;50.792;0.252;2023-08-06T01:02:52;13.20;99.90
14370;DHT22;7268;50.792;0.252;2023-08-06T01:05:20;13.20;99.90
14370;DHT22;7268;50.792;0.252;2023-08-06T01:08:08;13.20;99.90
14370;DHT22;7268;50.792;0.252;2023-08-06T01:10:50;13.20;99.90
14370;DHT22;7268;50.792;0.252;2023-08-06T01:13:38;13.20;99.90
14370;DHT22;7268;50.792;0.252;2023-08-06T01:16:09;13.20;99.90
14370;DHT22;7268;50.792;0.252;2023-08-06T01:18:36;13.10;99.90
14370;DHT22;7268;50.792;0.252;2023-08-06T01:21:05;13.10;99.90
14370;DHT22;7268;50.792;0.252;2023-08-06T01:23:32;13.10;99.90
14370;DHT22;7268;50.792;0.252;2023-08-06T01:28:56;13.10;99.90
14370;DHT22;7268;50.792;0.252;2023-08-06T01:31:35;13.10;99.90
14370;DHT22;7268;50.792;0.252;2023-08-06T01:34:06;13.10;99.90
14370;DHT22;7268;50.792;0.252;2023-08-06T01:36:34;13.10;99.90
14370;DHT22;7268;50.792;0.252;2023-08-06T01:39:01;13.10;99.90
14370;DHT22;7268;50.792;0.252;2023-08-06T01:41:28;13.10;99.90
14370;DHT22;7268;50.792;0.252;2023-08-06T01:43:55;13.10;99.90
14370;DHT22;7268;50.792;0.252;2023-08-06T01:46:21;13.00;99.90
14370;DHT22;7268;50.792;0.252;2023-08-06T01:48:48;13.00;99.90
14370;DHT22;7268;50.792;0.252;2023-08-06T01:51:15;13.00;99.90
14370;DHT22;7268;50.792;0.252;2023-08-06T01:53:42;13.00;99.90
14370;DHT22;7268;50.792;0.252;2023-08-06T01:56:09;13.00;99.90
14370;DHT22;7268;50.792;0.252;2023-08-06T01:58:36;13.00;99.90
14370;DHT22;7268;50.792;0.252;2023-08-06T02:01:03;13.00;99.90
14370;DHT22;7268;50.792;0.252;2023-08-06T02:03:29;13.00;99.90
14370;DHT22;7268;50.792;0.252;2023-08-06T02:05:56;12.90;99.90
14370;DHT22;7268;50.792;0.252;2023-08-06T02:08:23;12.80;99.90
14370;DHT22;7268;50.792;0.252;2023-08-06T02:10:50;12.80;99.90
14370;DHT22;7268;50.792;0.252;2023-08-06T02:13:17;12.70;99.90
14370;DHT22;7268;50.792;0.252;2023-08-06T02:15:45;12.50;99.90
14370;DHT22;7268;50.792;0.252;2023-08-06T02:18:14;12.40;99.90
14370;DHT22;7268;50.792;0.252;2023-08-06T02:20:42;12.30;99.90
14370;DHT22;7268;50.792;0.252;2023-08-06T02:23:09;12.20;99.90
14370;DHT22;7268;50.792;0.252;2023-08-06T02:25:36;12.10;99.90
14370;DHT22;7268;50.792;0.252;2023-08-06T02:28:03;12.10;99.90
14370;DHT22;7268;50.792;0.252;2023-08-06T02:30:30;12.00;99.90
14370;DHT22;7268;50.792;0.252;2023-08-06T02:32:57;11.90;99.90
14370;DHT22;7268;50.792;0.252;2023-08-06T02:35:24;11.80;99.90
14370;DHT22;7268;50.792;0.252;2023-08-06T02:37:50;11.80;99.90
14370;DHT22;7268;50.792;0.252;2023-08-06T02:40:17;11.70;99.90
14370;DHT22;7268;50.792;0.252;2023-08-06T02:42:44;11.80;99.90
14370;DHT22;7268;50.792;0.252;2023-08-06T02:45:11;11.70;99.90
14370;DHT22;7268;50.792;0.252;2023-08-06T02:47:38;11.60;99.90
14370;DHT22;7268;50.792;0.252;2023-08-06T02:50:05;11.60;99.90
14370;DHT22;7268;50.792;0.252;2023-08-06T02:52:32;11.50;99.90
14370;DHT22;7268;50.792;0.252;2023-08-06T02:54:59;11.50;99.90
14370;DHT22;7268;50.792;0.252;2023-08-06T02:57:27;11.40;99.90
14370;DHT22;7268;50.792;0.252;2023-08-06T02:59:53;11.40;99.90
14370;DHT22;7268;50.792;0.252;2023-08-06T03:02:20;11.40;99.90
14370;DHT22;7268;50.792;0.252;2023-08-06T03:04:47;11.30;99.90
14370;DHT22;7268;50.792;0.252;2023-08-06T03:07:14;11.30;99.90
14370;DHT22;7268;50.792;0.252;2023-08-06T03:09:41;11.30;99.90
14370;DHT22;7268;50.792;0.252;2023-08-06T03:12:08;11.30;99.90
14370;DHT22;7268;50.792;0.252;2023-08-06T03:14:35;11.30;99.90
14370;DHT22;7268;50.792;0.252;2023-08-06T03:17:02;11.30;99.90
14370;DHT22;7268;50.792;0.252;2023-08-06T03:19:29;11.30;99.90
14370;DHT22;7268;50.792;0.252;2023-08-06T03:21:56;11.20;99.90
14370;DHT22;7268;50.792;0.252;2023-08-06T03:24:23;11.20;99.90
14370;DHT22;7268;50.792;0.252;2023-08-06T03:26:49;11.10;99.90
14370;DHT22;7268;50.792;0.252;2023-08-06T03:29:16;11.20;99.90
14370;DHT22;7268;50.792;0.252;2023-08-06T03:31:43;11.20;99.90
14370;DHT22;7268;50.792;0.252;2023-08-06T03:34:10;11.10;99.90
14370;DHT22;7268;50.792;0.252;2023-08-06T03:36:37;11.10;99.90
14370;DHT22;7268;50.792;0.252;2023-08-06T03:39:04;11.10;99.90
14370;DHT22;7268;50.792;0.252;2023-08-06T03:41:31;11.00;99.90
14370;DHT22;7268;50.792;0.252;2023-08-06T03:43:58;11.00;99.90
14370;DHT22;7268;50.792;0.252;2023-08-06T03:46:25;11.00;99.90
14370;DHT22;7268;50.792;0.252;2023-08-06T03:48:52;11.00;99.90
14370;DHT22;7268;50.792;0.252;2023-08-06T03:51:19;11.00;99.90
14370;DHT22;7268;50.792;0.252;2023-08-06T03:53:46;10.90;99.90
14370;DHT22;7268;50.792;0.252;2023-08-06T03:56:13;10.90;99.90
14370;DHT22;7268;50.792;0.252;2023-08-06T03:58:39;10.90;99.90
14370;DHT22;7268;50.792;0.252;2023-08-06T04:01:06;10.90;99.90
14370;DHT22;7268;50.792;0.252;2023-08-06T04:03:33;10.90;99.90
14370;DHT22;7268;50.792;0.252;2023-08-06T04:06:03;10.90;99.90
14370;DHT22;7268;50.792;0.252;2023-08-06T04:08:30;10.90;99.90
14370;DHT22;7268;50.792;0.252;2023-08-06T04:10:56;10.80;99.90
14370;DHT22;7268;50.792;0.252;2023-08-06T04:13:23;10.90;99.90
14370;DHT22;7268;50.792;0.252;2023-08-06T04:15:50;10.90;99.90
14370;DHT22;7268;50.792;0.252;2023-08-06T04:18:17;10.80;99.90
14370;DHT22;7268;50.792;0.252;2023-08-06T04:20:44;10.80;99.90
14370;DHT22;7268;50.792;0.252;2023-08-06T04:23:12;10.70;99.90
14370;DHT22;7268;50.792;0.252;2023-08-06T04:25:39;10.70;99.90
14370;DHT22;7268;50.792;0.252;2023-08-06T04:28:07;10.70;99.90
14370;DHT22;7268;50.792;0.252;2023-08-06T04:30:34;10.80;99.90
14370;DHT22;7268;50.792;0.252;2023-08-06T04:33:01;10.70;99.90
14370;DHT22;7268;50.792;0.252;2023-08-06T04:35:27;10.70;99.90
14370;DHT22;7268;50.792;0.252;2023-08-06T04:37:54;10.70;99.90
14370;DHT22;7268;50.792;0.252;2023-08-06T04:40:21;10.70;99.90
14370;DHT22;7268;50.792;0.252;2023-08-06T04:42:48;10.70;99.90
14370;DHT22;7268;50.792;0.252;2023-08-06T04:45:15;10.80;99.90
14370;DHT22;7268;50.792;0.252;2023-08-06T04:47:42;10.80;99.90
14370;DHT22;7268;50.792;0.252;2023-08-06T04:50:09;10.80;99.90
14370;DHT22;7268;50.792;0.252;2023-08-06T04:52:37;10.80;99.90
14370;DHT22;7268;50.792;0.252;2023-08-06T04:55:04;10.80;99.90
14370;DHT22;7268;50.792;0.252;2023-08-06T04:57:32;10.80;99.90
14370;DHT22;7268;50.792;0.252;2023-08-06T04:59:59;10.90;99.90
14370;DHT22;7268;50.792;0.252;2023-08-06T05:02:26;10.90;99.90
14370;DHT22;7268;50.792;0.252;2023-08-06T05:04:53;10.90;99.90
14370;DHT22;7268;50.792;0.252;2023-08-06T05:07:20;11.00;99.90
14370;DHT22;7268;50.792;0.252;2023-08-06T05:09:47;11.00;99.90
14370;DHT22;7268;50.792;0.252;2023-08-06T05:12:14;11.00;99.90
14370;DHT22;7268;50.792;0.252;2023-08-06T05:14:40;11.10;99.90
14370;DHT22;7268;50.792;0.252;2023-08-06T05:17:07;11.10;99.90
14370;DHT22;7268;50.792;0.252;2023-08-06T05:19:34;11.10;99.90
14370;DHT22;7268;50.792;0.252;2023-08-06T05:22:01;11.20;99.90
14370;DHT22;7268;50.792;0.252;2023-08-06T05:24:29;11.20;99.90
14370;DHT22;7268;50.792;0.252;2023-08-06T05:26:56;11.20;99.90
14370;DHT22;7268;50.792;0.252;2023-08-06T05:29:23;11.20;99.90
14370;DHT22;7268;50.792;0.252;2023-08-06T05:31:49;11.30;99.90
14370;DHT22;7268;50.792;0.252;2023-08-06T05:34:16;11.30;99.90
14370;DHT22;7268;50.792;0.252;2023-08-06T05:36:43;11.40;99.90
14370;DHT22;7268;50.792;0.252;2023-08-06T05:39:10;11.40;99.90
14370;DHT22;7268;50.792;0.252;2023-08-06T05:41:37;11.50;99.90
14370;DHT22;7268;50.792;0.252;2023-08-06T05:44:04;11.50;99.90
14370;DHT22;7268;50.792;0.252;2023-08-06T05:46:31;11.60;99.90
14370;DHT22;7268;50.792;0.252;2023-08-06T05:48:57;11.70;99.90
14370;DHT22;7268;50.792;0.252;2023-08-06T05:51:26;11.80;99.90
14370;DHT22;7268;50.792;0.252;2023-08-06T05:53:53;12.40;99.90
14370;DHT22;7268;50.792;0.252;2023-08-06T05:56:20;13.20;99.90
14370;DHT22;7268;50.792;0.252;2023-08-06T05:58:47;14.00;99.50
14370;DHT22;7268;50.792;0.252;2023-08-06T06:01:14;14.80;97.80
14370;DHT22;7268;50.792;0.252;2023-08-06T06:03:41;15.00;96.60
14370;DHT22;7268;50.792;0.252;2023-08-06T06:06:08;15.10;96.20
14370;DHT22;7268;50.792;0.252;2023-08-06T06:08:35;15.50;95.90
14370;DHT22;7268;50.792;0.252;2023-08-06T06:11:01;15.70;95.00
14370;DHT22;7268;50.792;0.252;2023-08-06T06:13:28;16.10;94.30
14370;DHT22;7268;50.792;0.252;2023-08-06T06:15:55;16.10;93.90
14370;DHT22;7268;50.792;0.252;2023-08-06T06:18:23;15.90;94.20
14370;DHT22;7268;50.792;0.252;2023-08-06T06:20:50;16.30;93.80
14370;DHT22;7268;50.792;0.252;2023-08-06T06:23:16;16.80;92.80
14370;DHT22;7268;50.792;0.252;2023-08-06T06:25:47;17.10;92.40
14370;DHT22;7268;50.792;0.252;2023-08-06T06:28:14;17.30;91.90
14370;DHT22;7268;50.792;0.252;2023-08-06T06:30:42;17.30;91.30
14370;DHT22;7268;50.792;0.252;2023-08-06T06:33:08;17.60;91.10
14370;DHT22;7268;50.792;0.252;2023-08-06T06:35:36;17.60;90.90
14370;DHT22;7268;50.792;0.252;2023-08-06T06:38:03;17.50;90.80
14370;DHT22;7268;50.792;0.252;2023-08-06T06:40:30;17.70;90.80
14370;DHT22;7268;50.792;0.252;2023-08-06T06:42:57;17.90;90.10
14370;DHT22;7268;50.792;0.252;2023-08-06T06:45:24;18.20;90.40
14370;DHT22;7268;50.792;0.252;2023-08-06T06:47:51;18.60;89.50
14370;DHT22;7268;50.792;0.252;2023-08-06T06:50:18;18.50;89.20
14370;DHT22;7268;50.792;0.252;2023-08-06T06:52:45;18.80;86.80
14370;DHT22;7268;50.792;0.252;2023-08-06T06:55:12;18.80;86.60
14370;DHT22;7268;50.792;0.252;2023-08-06T06:57:39;18.70;86.60
14370;DHT22;7268;50.792;0.252;2023-08-06T07:00:06;18.90;85.70
14370;DHT22;7268;50.792;0.252;2023-08-06T07:02:33;19.70;84.00
14370;DHT22;7268;50.792;0.252;2023-08-06T07:05:00;19.90;81.90
14370;DHT22;7268;50.792;0.252;2023-08-06T07:07:27;20.50;80.60
14370;DHT22;7268;50.792;0.252;2023-08-06T07:09:54;20.20;81.30
14370;DHT22;7268;50.792;0.252;2023-08-06T07:12:21;20.30;80.20
14370;DHT22;7268;50.792;0.252;2023-08-06T07:14:48;20.30;80.80
14370;DHT22;7268;50.792;0.252;2023-08-06T07:17:15;20.30;80.00
14370;DHT22;7268;50.792;0.252;2023-08-06T07:19:42;20.10;81.90
14370;DHT22;7268;50.792;0.252;2023-08-06T07:22:09;20.40;81.20
14370;DHT22;7268;50.792;0.252;2023-08-06T07:24:36;21.10;79.00
14370;DHT22;7268;50.792;0.252;2023-08-06T07:27:03;21.20;78.20
14370;DHT22;7268;50.792;0.252;2023-08-06T07:29:29;21.20;78.60
14370;DHT22;7268;50.792;0.252;2023-08-06T07:31:56;20.70;79.70
14370;DHT22;7268;50.792;0.252;2023-08-06T07:34:23;21.10;79.70
14370;DHT22;7268;50.792;0.252;2023-08-06T07:36:50;21.80;77.00
14370;DHT22;7268;50.792;0.252;2023-08-06T07:39:17;21.70;76.20
14370;DHT22;7268;50.792;0.252;2023-08-06T07:41:44;21.20;78.40
14370;DHT22;7268;50.792;0.252;2023-08-06T07:44:12;21.50;78.30
14370;DHT22;7268;50.792;0.252;2023-08-06T07:46:39;21.50;79.60
14370;DHT22;7268;50.792;0.252;2023-08-06T07:49:07;22.10;76.70
14370;DHT22;7268;50.792;0.252;2023-08-06T07:51:34;22.70;74.70
14370;DHT22;7268;50.792;0.252;2023-08-06T07:54:01;22.80;73.00
14370;DHT22;7268;50.792;0.252;2023-08-06T07:56:27;22.60;74.10
14370;DHT22;7268;50.792;0.252;2023-08-06T07:58:54;22.70;76.70
14370;DHT22;7268;50.792;0.252;2023-08-06T08:01:21;22.10;76.30
14370;DHT22;7268;50.792;0.252;2023-08-06T08:03:48;21.80;77.30
14370;DHT22;7268;50.792;0.252;2023-08-06T08:06:15;22.20;76.90
14370;DHT22;7268;50.792;0.252;2023-08-06T08:08:42;22.90;73.60
14370;DHT22;7268;50.792;0.252;2023-08-06T08:11:09;22.70;74.60
14370;DHT22;7268;50.792;0.252;2023-08-06T08:13:36;22.90;73.60
14370;DHT22;7268;50.792;0.252;2023-08-06T08:16:03;23.10;73.10
14370;DHT22;7268;50.792;0.252;2023-08-06T08:18:30;23.00;72.30
14370;DHT22;7268;50.792;0.252;2023-08-06T08:20:58;23.10;73.20
14370;DHT22;7268;50.792;0.252;2023-08-06T08:23:25;23.70;73.30
14370;DHT22;7268;50.792;0.252;2023-08-06T08:25:52;23.60;71.60
14370;DHT22;7268;50.792;0.252;2023-08-06T08:28:19;23.40;71.80
14370;DHT22;7268;50.792;0.252;2023-08-06T08:30:46;23.20;72.40
14370;DHT22;7268;50.792;0.252;2023-08-06T08:33:13;24.00;67.90
14370;DHT22;7268;50.792;0.252;2023-08-06T08:35:39;23.70;68.60
14370;DHT22;7268;50.792;0.252;2023-08-06T08:38:07;22.70;71.30
14370;DHT22;7268;50.792;0.252;2023-08-06T08:40:43;23.60;73.10
14370;DHT22;7268;50.792;0.252;2023-08-06T08:43:12;24.00;71.00
14370;DHT22;7268;50.792;0.252;2023-08-06T08:45:42;24.20;69.60
14370;DHT22;7268;50.792;0.252;2023-08-06T08:48:12;23.70;69.00
14370;DHT22;7268;50.792;0.252;2023-08-06T08:50:42;24.20;69.80
14370;DHT22;7268;50.792;0.252;2023-08-06T08:53:11;24.20;70.00
14370;DHT22;7268;50.792;0.252;2023-08-06T08:55:38;24.10;68.40
14370;DHT22;7268;50.792;0.252;2023-08-06T08:58:05;24.10;70.50
14370;DHT22;7268;50.792;0.252;2023-08-06T09:00:32;24.40;66.30
14370;DHT22;7268;50.792;0.252;2023-08-06T09:03:01;24.40;69.00
14370;DHT22;7268;50.792;0.252;2023-08-06T09:05:29;24.60;66.00
14370;DHT22;7268;50.792;0.252;2023-08-06T09:08:02;24.90;66.30
14370;DHT22;7268;50.792;0.252;2023-08-06T09:10:30;24.20;66.60
14370;DHT22;7268;50.792;0.252;2023-08-06T09:12:57;24.50;66.10
14370;DHT22;7268;50.792;0.252;2023-08-06T09:15:25;25.10;65.00
14370;DHT22;7268;50.792;0.252;2023-08-06T09:17:55;24.50;64.40
14370;DHT22;7268;50.792;0.252;2023-08-06T09:20:22;24.10;66.20
14370;DHT22;7268;50.792;0.252;2023-08-06T09:22:52;24.90;65.80
14370;DHT22;7268;50.792;0.252;2023-08-06T09:25:23;25.10;62.00
14370;DHT22;7268;50.792;0.252;2023-08-06T09:27:51;24.50;66.80
14370;DHT22;7268;50.792;0.252;2023-08-06T09:30:33;24.90;66.50
14370;DHT22;7268;50.792;0.252;2023-08-06T09:33:00;25.40;64.80
14370;DHT22;7268;50.792;0.252;2023-08-06T09:35:29;25.50;62.10
14370;DHT22;7268;50.792;0.252;2023-08-06T09:38:07;24.70;65.10
14370;DHT22;7268;50.792;0.252;2023-08-06T09:40:35;25.10;64.10
14370;DHT22;7268;50.792;0.252;2023-08-06T09:43:02;24.60;67.40
14370;DHT22;7268;50.792;0.252;2023-08-06T09:45:36;24.20;68.60
14370;DHT22;7268;50.792;0.252;2023-08-06T09:48:08;24.70;69.30
14370;DHT22;7268;50.792;0.252;2023-08-06T09:50:36;25.60;65.10
14370;DHT22;7268;50.792;0.252;2023-08-06T09:53:05;26.30;61.10
14370;DHT22;7268;50.792;0.252;2023-08-06T09:55:33;25.80;62.90
14370;DHT22;7268;50.792;0.252;2023-08-06T09:58:00;25.10;65.50
14370;DHT22;7268;50.792;0.252;2023-08-06T10:00:27;25.40;66.10
14370;DHT22;7268;50.792;0.252;2023-08-06T10:03:00;26.00;64.50
14370;DHT22;7268;50.792;0.252;2023-08-06T10:05:27;25.70;63.90
14370;DHT22;7268;50.792;0.252;2023-08-06T10:07:55;26.30;64.30
14370;DHT22;7268;50.792;0.252;2023-08-06T10:10:24;26.70;62.00
14370;DHT22;7268;50.792;0.252;2023-08-06T10:12:54;26.30;63.60
14370;DHT22;7268;50.792;0.252;2023-08-06T10:15:26;26.50;64.70
14370;DHT22;7268;50.792;0.252;2023-08-06T10:17:57;26.50;62.60
14370;DHT22;7268;50.792;0.252;2023-08-06T10:20:24;26.20;62.20
14370;DHT22;7268;50.792;0.252;2023-08-06T10:23:05;25.90;63.00
14370;DHT22;7268;50.792;0.252;2023-08-06T10:25:34;26.00;63.90
14370;DHT22;7268;50.792;0.252;2023-08-06T10:28:11;26.00;62.90
14370;DHT22;7268;50.792;0.252;2023-08-06T10:30:46;25.90;65.10
14370;DHT22;7268;50.792;0.252;2023-08-06T10:33:13;24.50;69.40
14370;DHT22;7268;50.792;0.252;2023-08-06T10:35:42;25.30;68.00
14370;DHT22;7268;50.792;0.252;2023-08-06T10:38:21;24.40;67.70
14370;DHT22;7268;50.792;0.252;2023-08-06T10:43:32;25.60;64.90
14370;DHT22;7268;50.792;0.252;2023-08-06T10:46:03;26.40;64.70
14370;DHT22;7268;50.792;0.252;2023-08-06T10:51:13;25.50;61.20
14370;DHT22;7268;50.792;0.252;2023-08-06T10:53:43;25.90;63.50
14370;DHT22;7268;50.792;0.252;2023-08-06T10:56:20;26.90;60.90
14370;DHT22;7268;50.792;0.252;2023-08-06T10:58:50;26.90;59.10
14370;DHT22;7268;50.792;0.252;2023-08-06T11:01:17;25.30;62.70
14370;DHT22;7268;50.792;0.252;2023-08-06T11:03:46;23.70;67.30
14370;DHT22;7268;50.792;0.252;2023-08-06T11:06:20;24.20;71.90
14370;DHT22;7268;50.792;0.252;2023-08-06T11:08:53;24.50;66.80
14370;DHT22;7268;50.792;0.252;2023-08-06T11:11:21;24.90;66.20
14370;DHT22;7268;50.792;0.252;2023-08-06T11:13:50;25.90;63.30
14370;DHT22;7268;50.792;0.252;2023-08-06T11:16:19;26.40;63.50
14370;DHT22;7268;50.792;0.252;2023-08-06T11:18:47;26.20;62.80
14370;DHT22;7268;50.792;0.252;2023-08-06T11:21:14;24.70;63.50
14370;DHT22;7268;50.792;0.252;2023-08-06T11:23:41;24.10;66.80
14370;DHT22;7268;50.792;0.252;2023-08-06T11:26:08;23.80;67.10
14370;DHT22;7268;50.792;0.252;2023-08-06T11:28:35;24.30;68.40
14370;DHT22;7268;50.792;0.252;2023-08-06T11:31:02;24.50;68.30
14370;DHT22;7268;50.792;0.252;2023-08-06T11:33:30;23.90;67.70
14370;DHT22;7268;50.792;0.252;2023-08-06T11:35:59;23.70;67.80
14370;DHT22;7268;50.792;0.252;2023-08-06T11:38:28;23.40;68.30
14370;DHT22;7268;50.792;0.252;2023-08-06T11:40:55;23.50;70.20
14370;DHT22;7268;50.792;0.252;2023-08-06T11:43:22;24.30;67.60
14370;DHT22;7268;50.792;0.252;2023-08-06T11:45:50;24.40;65.90
14370;DHT22;7268;50.792;0.252;2023-08-06T11:48:17;25.00;63.10
14370;DHT22;7268;50.792;0.252;2023-08-06T11:50:44;26.10;64.30
14370;DHT22;7268;50.792;0.252;2023-08-06T11:53:13;26.20;61.70
14370;DHT22;7268;50.792;0.252;2023-08-06T11:55:41;25.70;62.40
14370;DHT22;7268;50.792;0.252;2023-08-06T11:58:10;24.90;62.20
14370;DHT22;7268;50.792;0.252;2023-08-06T12:00:39;23.80;66.10
14370;DHT22;7268;50.792;0.252;2023-08-06T12:03:06;23.40;68.90
14370;DHT22;7268;50.792;0.252;2023-08-06T12:05:33;24.60;66.80
14370;DHT22;7268;50.792;0.252;2023-08-06T12:08:02;24.00;65.60
14370;DHT22;7268;50.792;0.252;2023-08-06T12:10:30;23.60;70.00
14370;DHT22;7268;50.792;0.252;2023-08-06T12:12:58;23.20;69.20
14370;DHT22;7268;50.792;0.252;2023-08-06T12:15:25;22.60;70.90
14370;DHT22;7268;50.792;0.252;2023-08-06T12:17:51;21.70;72.60
14370;DHT22;7268;50.792;0.252;2023-08-06T12:20:18;21.30;74.60
14370;DHT22;7268;50.792;0.252;2023-08-06T12:22:45;20.90;76.90
14370;DHT22;7268;50.792;0.252;2023-08-06T12:25:12;21.00;77.00
14370;DHT22;7268;50.792;0.252;2023-08-06T12:27:44;21.00;77.20
14370;DHT22;7268;50.792;0.252;2023-08-06T12:30:12;21.30;76.80
14370;DHT22;7268;50.792;0.252;2023-08-06T12:32:40;21.20;76.50
14370;DHT22;7268;50.792;0.252;2023-08-06T12:35:07;21.00;75.00
14370;DHT22;7268;50.792;0.252;2023-08-06T12:37:35;21.10;75.20
14370;DHT22;7268;50.792;0.252;2023-08-06T12:40:02;21.30;74.80
14370;DHT22;7268;50.792;0.252;2023-08-06T12:42:53;21.30;73.60
14370;DHT22;7268;50.792;0.252;2023-08-06T12:45:20;21.70;74.50
14370;DHT22;7268;50.792;0.252;2023-08-06T12:47:48;21.20;75.20
14370;DHT22;7268;50.792;0.252;2023-08-06T12:50:16;20.80;76.80
14370;DHT22;7268;50.792;0.252;2023-08-06T12:52:44;20.60;77.10
14370;DHT22;7268;50.792;0.252;2023-08-06T12:55:11;20.10;78.90
14370;DHT22;7268;50.792;0.252;2023-08-06T12:57:38;20.00;78.50
14370;DHT22;7268;50.792;0.252;2023-08-06T13:00:22;20.40;77.40
14370;DHT22;7268;50.792;0.252;2023-08-06T13:02:49;21.20;78.60
14370;DHT22;7268;50.792;0.252;2023-08-06T13:05:16;21.50;75.40
14370;DHT22;7268;50.792;0.252;2023-08-06T13:07:43;21.70;73.70
14370;DHT22;7268;50.792;0.252;2023-08-06T13:10:10;22.10;79.00
14370;DHT22;7268;50.792;0.252;2023-08-06T13:12:37;22.80;71.90
14370;DHT22;7268;50.792;0.252;2023-08-06T13:15:04;22.70;69.50
14370;DHT22;7268;50.792;0.252;2023-08-06T13:17:31;22.50;70.50
14370;DHT22;7268;50.792;0.252;2023-08-06T13:19:58;22.40;71.90
14370;DHT22;7268;50.792;0.252;2023-08-06T13:22:25;21.50;73.00
14370;DHT22;7268;50.792;0.252;2023-08-06T13:24:52;20.90;72.10
14370;DHT22;7268;50.792;0.252;2023-08-06T13:27:19;20.70;75.40
14370;DHT22;7268;50.792;0.252;2023-08-06T13:29:46;20.90;75.60
14370;DHT22;7268;50.792;0.252;2023-08-06T13:32:13;21.00;74.70
14370;DHT22;7268;50.792;0.252;2023-08-06T13:34:40;21.30;78.00
14370;DHT22;7268;50.792;0.252;2023-08-06T13:37:06;21.40;76.90
14370;DHT22;7268;50.792;0.252;2023-08-06T13:39:33;21.20;74.30
14370;DHT22;7268;50.792;0.252;2023-08-06T13:42:00;21.60;77.90
14370;DHT22;7268;50.792;0.252;2023-08-06T13:44:27;21.90;73.30
14370;DHT22;7268;50.792;0.252;2023-08-06T13:46:55;22.20;71.50
14370;DHT22;7268;50.792;0.252;2023-08-06T13:49:23;22.30;74.30
14370;DHT22;7268;50.792;0.252;2023-08-06T13:51:49;22.30;74.80
14370;DHT22;7268;50.792;0.252;2023-08-06T13:54:16;22.20;72.90
14370;DHT22;7268;50.792;0.252;2023-08-06T13:56:43;22.20;74.10
14370;DHT22;7268;50.792;0.252;2023-08-06T13:59:10;22.40;72.60
14370;DHT22;7268;50.792;0.252;2023-08-06T14:01:40;22.50;71.30
14370;DHT22;7268;50.792;0.252;2023-08-06T14:04:16;22.30;72.50
14370;DHT22;7268;50.792;0.252;2023-08-06T14:06:43;22.10;74.50
14370;DHT22;7268;50.792;0.252;2023-08-06T14:09:11;21.80;72.70
14370;DHT22;7268;50.792;0.252;2023-08-06T14:11:40;21.40;74.00
14370;DHT22;7268;50.792;0.252;2023-08-06T14:14:07;21.10;76.10
14370;DHT22;7268;50.792;0.252;2023-08-06T14:16:35;21.00;76.40
14370;DHT22;7268;50.792;0.252;2023-08-06T14:19:02;20.90;77.00
14370;DHT22;7268;50.792;0.252;2023-08-06T14:21:29;21.00;79.30
14370;DHT22;7268;50.792;0.252;2023-08-06T14:23:56;21.20;80.00
14370;DHT22;7268;50.792;0.252;2023-08-06T14:26:23;21.30;76.20
14370;DHT22;7268;50.792;0.252;2023-08-06T14:28:50;21.30;78.60
14370;DHT22;7268;50.792;0.252;2023-08-06T14:31:21;21.20;78.50
14370;DHT22;7268;50.792;0.252;2023-08-06T14:33:48;21.20;76.00
14370;DHT22;7268;50.792;0.252;2023-08-06T14:36:15;21.20;76.80
14370;DHT22;7268;50.792;0.252;2023-08-06T14:38:41;21.50;77.60
14370;DHT22;7268;50.792;0.252;2023-08-06T14:41:25;21.50;75.80
14370;DHT22;7268;50.792;0.252;2023-08-06T14:43:52;20.90;76.80
14370;DHT22;7268;50.792;0.252;2023-08-06T14:46:20;20.70;76.10
14370;DHT22;7268;50.792;0.252;2023-08-06T14:48:46;20.80;77.30
14370;DHT22;7268;50.792;0.252;2023-08-06T14:51:13;21.00;77.00
14370;DHT22;7268;50.792;0.252;2023-08-06T14:53:40;21.20;78.60
14370;DHT22;7268;50.792;0.252;2023-08-06T14:56:08;21.70;75.80
14370;DHT22;7268;50.792;0.252;2023-08-06T14:58:35;22.10;78.10
14370;DHT22;7268;50.792;0.252;2023-08-06T15:01:02;22.40;78.90
14370;DHT22;7268;50.792;0.252;2023-08-06T15:03:29;22.60;72.70
14370;DHT22;7268;50.792;0.252;2023-08-06T15:05:57;22.20;75.50
14370;DHT22;7268;50.792;0.252;2023-08-06T15:08:24;22.00;76.00
14370;DHT22;7268;50.792;0.252;2023-08-06T15:10:52;22.10;75.30
14370;DHT22;7268;50.792;0.252;2023-08-06T15:13:19;21.90;72.70
14370;DHT22;7268;50.792;0.252;2023-08-06T15:15:47;21.70;75.60
14370;DHT22;7268;50.792;0.252;2023-08-06T15:18:14;21.50;72.60
14370;DHT22;7268;50.792;0.252;2023-08-06T15:20:41;21.40;73.80
14370;DHT22;7268;50.792;0.252;2023-08-06T15:23:08;21.40;73.80
14370;DHT22;7268;50.792;0.252;2023-08-06T15:25:35;21.20;74.90
14370;DHT22;7268;50.792;0.252;2023-08-06T15:28:02;21.00;75.70
14370;DHT22;7268;50.792;0.252;2023-08-06T15:30:29;20.90;79.70
14370;DHT22;7268;50.792;0.252;2023-08-06T15:32:56;20.70;79.40
14370;DHT22;7268;50.792;0.252;2023-08-06T15:35:23;20.50;79.90
14370;DHT22;7268;50.792;0.252;2023-08-06T15:37:50;20.20;85.40
14370;DHT22;7268;50.792;0.252;2023-08-06T15:40:17;19.80;86.80
14370;DHT22;7268;50.792;0.252;2023-08-06T15:42:44;19.50;87.70
14370;DHT22;7268;50.792;0.252;2023-08-06T15:45:11;19.40;88.20
14370;DHT22;7268;50.792;0.252;2023-08-06T15:47:38;19.40;88.50
14370;DHT22;7268;50.792;0.252;2023-08-06T15:50:08;19.40;89.10
14370;DHT22;7268;50.792;0.252;2023-08-06T15:52:35;19.30;88.20
14370;DHT22;7268;50.792;0.252;2023-08-06T15:55:03;19.20;90.00
14370;DHT22;7268;50.792;0.252;2023-08-06T15:57:33;19.00;90.30